Time;durP1;ratioP1;P1;durP2;ratioP2;P2;SDS_P1;SDS_P2;PMS_P1;PMS_P2;Temp;Humidity;BMP_temperature;BMP_pressure;BME280_temperature;BME280_humidity;BME280_pressure;Samples;Min_cycle;Max_cycle;Signal;HPM_P1;HPM_P2
2022/08/03 00:00:39;;;;;;;13.15;4.13;;;;;;;14.60;100.00;100302.56;5024998;28;20471;-77
2022/08/03 00:03:05;;;;;;;12.13;3.50;;;;;;;14.61;100.00;100296.13;4989536;28;20049;-77
2022/08/03 00:05:32;;;;;;;13.20;2.85;;;;;;;14.57;100.00;100291.34;5019321;28;20123;-76
2022/08/03 00:08:01;;;;;;;19.50;3.95;;;;;;;14.65;100.00;100296.53;5009247;28;20395;-76
2022/08/03 00:10:27;;;;;;;18.85;5.15;;;;;;;14.63;100.00;100296.75;4987367;28;20044;-76
2022/08/03 00:12:54;;;;;;;11.18;3.22;;;;;;;14.65;100.00;100297.34;5019210;28;20037;-75
2022/08/03 00:15:19;;;;;;;12.55;3.58;;;;;;;14.66;100.00;100293.63;4991773;28;20041;-75
2022/08/03 00:17:45;;;;;;;15.38;3.50;;;;;;;14.67;100.00;100291.75;4989489;28;20029;-76
2022/08/03 00:20:11;;;;;;;11.98;3.50;;;;;;;14.76;100.00;100303.16;5006380;28;20079;-76
2022/08/03 00:22:37;;;;;;;12.95;3.78;;;;;;;14.75;100.00;100296.09;5009164;28;20030;-76
2022/08/03 00:25:03;;;;;;;10.70;2.67;;;;;;;14.81;100.00;100306.88;5025457;28;20040;-76
2022/08/03 00:27:32;;;;;;;16.52;3.75;;;;;;;14.77;100.00;100305.66;5024420;28;20025;-76
2022/08/03 00:29:58;;;;;;;7.45;2.85;;;;;;;14.78;100.00;100306.47;5012913;28;20044;-77
2022/08/03 00:32:25;;;;;;;12.18;3.78;;;;;;;14.74;100.00;100300.66;5019537;28;20064;-75
2022/08/03 00:34:50;;;;;;;16.70;3.08;;;;;;;14.62;100.00;100296.97;4974572;28;20067;-76
2022/08/03 00:37:16;;;;;;;16.67;4.07;;;;;;;14.48;100.00;100290.72;5024592;28;20034;-76
2022/08/03 00:39:44;;;;;;;13.43;3.50;;;;;;;14.41;100.00;100289.91;5007359;28;20033;-76
2022/08/03 00:42:10;;;;;;;11.45;3.45;;;;;;;14.49;100.00;100282.38;5013589;28;20224;-76
2022/08/03 00:44:40;;;;;;;8.07;2.67;;;;;;;14.56;100.00;100276.19;5028830;28;20566;-75
2022/08/03 00:47:06;;;;;;;11.55;2.10;;;;;;;14.60;100.00;100280.09;5020612;28;20369;-76
2022/08/03 00:49:32;;;;;;;12.55;3.10;;;;;;;14.60;100.00;100266.56;5023169;28;20032;-76
2022/08/03 00:51:59;;;;;;;10.30;3.40;;;;;;;14.66;100.00;100271.13;4991689;28;20369;-76
2022/08/03 00:54:24;;;;;;;11.48;2.60;;;;;;;14.67;100.00;100265.50;4989034;28;20067;-76
2022/08/03 00:56:51;;;;;;;14.13;3.17;;;;;;;14.72;100.00;100262.16;5021660;28;20783;-75
2022/08/03 00:59:17;;;;;;;8.55;2.38;;;;;;;14.70;100.00;100258.84;4988694;28;20041;-76
2022/08/03 01:01:43;;;;;;;13.73;2.60;;;;;;;14.59;100.00;100245.97;5002795;28;20040;-75
2022/08/03 01:04:09;;;;;;;18.35;3.30;;;;;;;14.68;100.00;100255.50;5023285;28;20033;-75
2022/08/03 01:07:00;;;;;;;8.95;3.40;;;;;;;14.79;100.00;100265.69;5019483;28;20095;-75
2022/08/03 01:09:44;;;;;;;11.65;2.85;;;;;;;14.77;100.00;100250.69;5003917;28;20111;-75
2022/08/03 01:12:20;;;;;;;12.10;2.35;;;;;;;14.72;100.00;100254.88;5029543;28;20048;-76
2022/08/03 01:15:09;;;;;;;16.48;3.40;;;;;;;14.66;100.00;100250.31;5006049;28;20180;-76
2022/08/03 01:17:58;;;;;;;12.45;2.30;;;;;;;14.49;100.00;100252.63;5029966;28;20041;-76
2022/08/03 01:20:26;;;;;;;14.02;3.75;;;;;;;14.41;100.00;100260.97;5012040;28;20724;-76
2022/08/03 01:23:14;;;;;;;13.45;3.13;;;;;;;14.28;100.00;100264.56;5019111;28;20022;-76
2022/08/03 01:25:52;;;;;;;11.80;3.05;;;;;;;14.25;100.00;100269.56;5028308;28;20391;-75
2022/08/03 01:28:43;;;;;;;7.50;1.90;;;;;;;14.05;100.00;100264.19;5027592;28;20048;-75
2022/08/03 01:31:10;;;;;;;15.97;4.13;;;;;;;13.92;100.00;100251.56;5006533;28;20472;-76
2022/08/03 01:33:42;;;;;;;11.25;3.15;;;;;;;14.01;100.00;100254.84;5027334;28;20132;-76
2022/08/03 01:36:13;;;;;;;10.68;2.88;;;;;;;14.00;100.00;100259.44;4993496;28;20042;-76
2022/08/03 01:38:47;;;;;;;21.45;4.45;;;;;;;14.02;100.00;100260.03;4997323;28;20048;-75
2022/08/03 01:41:17;;;;;;;12.48;3.05;;;;;;;14.02;100.00;100254.63;5023284;28;20036;-76
2022/08/03 01:43:47;;;;;;;10.15;3.53;;;;;;;14.02;100.00;100260.03;5011563;28;20041;-75
2022/08/03 01:46:13;;;;;;;18.27;3.20;;;;;;;13.98;100.00;100255.28;5010868;28;20038;-77
2022/08/03 01:48:41;;;;;;;9.38;2.80;;;;;;;14.00;100.00;100262.13;4998347;28;20380;-75
2022/08/03 01:51:08;;;;;;;10.30;2.95;;;;;;;13.93;100.00;100255.91;5031214;28;20525;-76
2022/08/03 01:53:34;;;;;;;17.08;3.15;;;;;;;13.90;100.00;100258.22;5029006;28;20036;-76
2022/08/03 01:56:01;;;;;;;17.20;3.63;;;;;;;13.91;100.00;100260.69;4988885;28;20038;-76
2022/08/03 01:58:28;;;;;;;17.58;3.88;;;;;;;13.99;100.00;100259.63;5031032;28;20083;-77
2022/08/03 02:00:58;;;;;;;16.70;3.20;;;;;;;14.13;100.00;100263.13;5038829;28;20037;-76
2022/08/03 02:03:24;;;;;;;9.00;2.10;;;;;;;14.23;100.00;100263.53;5007501;28;20072;-75
2022/08/03 02:05:52;;;;;;;17.42;3.20;;;;;;;14.25;100.00;100258.75;4969456;28;20041;-75
2022/08/03 02:08:18;;;;;;;13.27;3.03;;;;;;;14.23;100.00;100260.81;4984899;28;20045;-76
2022/08/03 02:10:45;;;;;;;11.82;2.75;;;;;;;14.10;100.00;100255.44;5009087;28;20136;-76
2022/08/03 02:13:11;;;;;;;17.30;3.53;;;;;;;14.06;100.00;100265.88;5026511;28;20095;-76
2022/08/03 02:15:38;;;;;;;20.00;3.05;;;;;;;14.03;100.00;100267.13;5005949;28;20076;-76
2022/08/03 02:18:05;;;;;;;11.98;3.40;;;;;;;13.95;100.00;100275.44;5025335;28;20083;-75
2022/08/03 02:20:35;;;;;;;16.38;3.25;;;;;;;13.87;100.00;100272.97;5009007;28;20037;-76
2022/08/03 02:23:00;;;;;;;14.65;4.60;;;;;;;13.77;100.00;100269.84;4994100;28;20892;-76
2022/08/03 02:25:27;;;;;;;10.35;3.00;;;;;;;13.66;100.00;100262.38;4988093;28;20068;-76
2022/08/03 02:27:58;;;;;;;11.55;2.85;;;;;;;13.51;100.00;100259.88;5004862;28;20045;-76
2022/08/03 02:30:30;;;;;;;16.08;3.35;;;;;;;13.50;100.00;100272.56;5019324;28;20059;-75
2022/08/03 02:32:57;;;;;;;10.63;3.28;;;;;;;13.57;100.00;100272.53;5053639;28;20060;-76
2022/08/03 02:35:25;;;;;;;13.80;3.05;;;;;;;13.63;100.00;100279.84;5004012;28;20030;-75
2022/08/03 02:37:56;;;;;;;15.48;3.00;;;;;;;13.67;100.00;100285.66;5003511;28;20033;-76
2022/08/03 02:40:23;;;;;;;13.98;3.03;;;;;;;13.49;100.00;100260.06;5022366;28;20065;-76
2022/08/03 02:42:50;;;;;;;14.07;3.10;;;;;;;13.58;100.00;100295.84;5004935;28;20499;-76
2022/08/03 02:45:17;;;;;;;15.70;3.83;;;;;;;13.51;100.00;100289.59;4996372;28;20037;-76
2022/08/03 02:47:44;;;;;;;14.48;3.22;;;;;;;13.54;100.00;100286.47;5007886;28;20505;-75
2022/08/03 02:50:11;;;;;;;14.20;3.30;;;;;;;13.64;100.00;100281.47;5007201;28;20041;-76
2022/08/03 02:52:37;;;;;;;20.80;4.25;;;;;;;13.69;100.00;100275.47;5025970;28;20029;-76
2022/08/03 02:55:04;;;;;;;11.05;3.03;;;;;;;13.84;100.00;100287.72;5005919;28;20042;-76
2022/08/03 02:57:30;;;;;;;18.55;3.65;;;;;;;13.82;100.00;100278.16;4995805;28;20036;-76
2022/08/03 02:59:57;;;;;;;19.35;3.30;;;;;;;13.79;100.00;100294.81;5022182;28;20041;-76
2022/08/03 03:02:24;;;;;;;13.00;4.10;;;;;;;13.78;100.00;100287.72;5000124;28;20025;-76
2022/08/03 03:04:51;;;;;;;22.85;3.38;;;;;;;13.53;100.00;100287.50;5008073;28;20041;-75
2022/08/03 03:07:19;;;;;;;18.55;2.67;;;;;;;13.46;100.00;100303.69;5002447;28;20116;-76
2022/08/03 03:09:45;;;;;;;20.10;2.97;;;;;;;13.30;100.00;100304.91;5028359;28;20033;-76
2022/08/03 03:12:12;;;;;;;17.00;3.80;;;;;;;13.14;100.00;100298.00;4987339;28;20037;-76
2022/08/03 03:14:38;;;;;;;19.67;4.10;;;;;;;13.06;100.00;100310.84;5023996;28;20037;-76
2022/08/03 03:17:05;;;;;;;16.70;3.53;;;;;;;12.95;100.00;100301.47;4992083;28;20183;-75
2022/08/03 03:19:31;;;;;;;20.63;3.53;;;;;;;12.94;100.00;100302.53;5014779;28;20034;-75
2022/08/03 03:22:00;;;;;;;24.65;4.00;;;;;;;12.77;100.00;100315.53;5014623;28;20043;-75
2022/08/03 03:24:27;;;;;;;22.98;3.95;;;;;;;12.56;100.00;100319.16;4990811;28;20044;-75
2022/08/03 03:26:53;;;;;;;31.48;4.35;;;;;;;12.35;100.00;100316.53;5011402;28;20383;-75
2022/08/03 03:29:19;;;;;;;21.75;4.65;;;;;;;12.34;100.00;100322.97;5002448;28;20037;-76
2022/08/03 03:31:44;;;;;;;10.13;2.67;;;;;;;12.45;100.00;100319.72;5016983;28;20367;-76
2022/08/03 03:34:10;;;;;;;24.67;3.88;;;;;;;12.49;100.00;100316.44;5024556;28;20040;-75
2022/08/03 03:36:36;;;;;;;12.82;2.78;;;;;;;12.58;100.00;100317.09;4987107;28;20038;-75
2022/08/03 03:39:01;;;;;;;24.23;3.75;;;;;;;12.60;100.00;100306.13;4998965;28;20038;-76
2022/08/03 03:41:27;;;;;;;18.23;3.22;;;;;;;12.67;100.00;100313.19;5021074;28;20045;-76
2022/08/03 03:43:53;;;;;;;20.38;4.95;;;;;;;12.67;100.00;100315.88;4998719;28;20036;-75
2022/08/03 03:46:19;;;;;;;23.85;4.05;;;;;;;12.54;100.00;100310.44;5007683;28;20091;-76
2022/08/03 03:48:44;;;;;;;13.38;3.13;;;;;;;12.42;100.00;100317.44;5002300;28;20108;-76
2022/08/03 03:51:10;;;;;;;15.20;2.53;;;;;;;12.24;100.00;100315.25;5009189;28;20099;-76
2022/08/03 03:53:36;;;;;;;15.65;2.85;;;;;;;12.06;100.00;100307.66;5030611;28;20056;-76
2022/08/03 03:56:01;;;;;;;17.77;2.95;;;;;;;12.03;100.00;100326.91;5024443;28;20045;-75
2022/08/03 03:58:27;;;;;;;12.43;2.33;;;;;;;11.98;100.00;100326.66;5015282;28;20030;-76
2022/08/03 04:00:53;;;;;;;15.52;2.90;;;;;;;12.03;100.00;100333.13;5019013;28;20071;-76
2022/08/03 04:03:19;;;;;;;21.75;3.65;;;;;;;12.01;100.00;100328.97;4998385;28;20034;-76
2022/08/03 04:11:21;;;;;;;18.27;3.58;;;;;;;12.32;100.00;100329.38;5016742;28;20464;-76
2022/08/03 04:13:52;;;;;;;18.00;3.55;;;;;;;12.47;100.00;100331.16;5019055;28;20506;-75
2022/08/03 04:16:21;;;;;;;20.98;3.58;;;;;;;12.53;100.00;100333.88;5004706;28;20033;-76
2022/08/03 04:18:50;;;;;;;17.10;2.65;;;;;;;12.55;100.00;100328.28;4992264;28;20091;-76
2022/08/03 04:21:18;;;;;;;14.85;3.22;;;;;;;12.46;100.00;100314.16;5003453;28;20041;-75
2022/08/03 04:23:46;;;;;;;16.73;2.70;;;;;;;12.56;100.00;100324.53;5010144;28;20159;-76
2022/08/03 04:26:14;;;;;;;12.27;2.67;;;;;;;12.64;100.00;100329.78;5002995;28;20038;-76
2022/08/03 04:28:41;;;;;;;13.48;2.33;;;;;;;12.67;100.00;100325.84;5006657;28;20042;-75
2022/08/03 04:31:07;;;;;;;14.35;3.00;;;;;;;12.67;100.00;100329.38;5013827;28;20092;-75
2022/08/03 04:33:34;;;;;;;17.30;3.40;;;;;;;12.64;100.00;100323.56;5007286;28;20482;-76
2022/08/03 04:36:04;;;;;;;13.63;2.85;;;;;;;12.70;100.00;100333.53;5013525;28;20053;-75
2022/08/03 04:38:32;;;;;;;15.82;2.78;;;;;;;12.74;100.00;100337.50;5014427;28;20038;-76
2022/08/03 04:40:58;;;;;;;16.20;2.80;;;;;;;12.79;100.00;100334.22;5025998;28;20071;-75
2022/08/03 04:43:24;;;;;;;15.45;3.65;;;;;;;12.75;100.00;100331.06;5001345;28;20735;-76
2022/08/03 04:45:51;;;;;;;11.77;1.95;;;;;;;12.83;100.00;100332.75;5007160;28;20038;-75
2022/08/03 04:48:18;;;;;;;17.85;3.30;;;;;;;12.80;100.00;100320.50;5023962;28;20045;-75
2022/08/03 04:50:45;;;;;;;12.93;3.20;;;;;;;12.87;100.00;100332.16;4984951;28;20044;-76
2022/08/03 04:53:11;;;;;;;22.88;3.83;;;;;;;12.93;100.00;100336.75;5005699;28;20046;-76
2022/08/03 04:55:37;;;;;;;16.05;2.63;;;;;;;12.93;100.00;100335.94;5003082;28;20085;-76
2022/08/03 04:58:03;;;;;;;12.98;2.95;;;;;;;12.87;100.00;100328.66;5021719;28;20064;-76
2022/08/03 05:00:29;;;;;;;14.63;3.17;;;;;;;12.91;100.00;100338.00;5006282;28;20029;-76
2022/08/03 05:02:55;;;;;;;5.82;1.77;;;;;;;12.94;100.00;100337.59;5002659;28;20468;-76
2022/08/03 05:05:21;;;;;;;13.68;2.67;;;;;;;12.83;100.00;100330.06;5050312;28;20037;-76
2022/08/03 05:07:47;;;;;;;9.55;2.03;;;;;;;12.93;100.00;100330.53;5008479;28;20553;-76
2022/08/03 05:10:13;;;;;;;9.05;1.88;;;;;;;12.92;100.00;100337.81;4991835;28;20042;-75
2022/08/03 05:12:39;;;;;;;14.38;2.83;;;;;;;12.91;100.00;100338.00;5018729;28;20037;-76
2022/08/03 05:15:05;;;;;;;11.85;2.60;;;;;;;12.89;100.00;100332.81;5002168;28;20037;-76
2022/08/03 05:17:32;;;;;;;11.82;2.03;;;;;;;12.89;100.00;100334.69;5008755;28;20033;-76
2022/08/03 05:19:59;;;;;;;7.45;2.05;;;;;;;12.93;100.00;100341.31;5031595;28;20083;-76
2022/08/03 05:22:24;;;;;;;10.68;2.22;;;;;;;12.98;100.00;100344.25;4996665;28;20049;-76
2022/08/03 05:24:50;;;;;;;16.52;2.47;;;;;;;12.96;100.00;100347.13;4992106;28;20046;-76
2022/08/03 05:27:18;;;;;;;10.77;2.28;;;;;;;13.00;100.00;100352.97;5020793;28;20439;-76
2022/08/03 05:29:49;;;;;;;10.63;2.40;;;;;;;13.02;100.00;100344.66;5019936;28;20060;-75
2022/08/03 05:32:15;;;;;;;10.02;2.38;;;;;;;12.97;100.00;100337.19;5007450;28;20465;-75
2022/08/03 05:34:41;;;;;;;12.75;2.40;;;;;;;13.12;100.00;100345.13;5007728;28;20528;-75
2022/08/03 05:37:06;;;;;;;11.43;2.92;;;;;;;13.22;100.00;100350.16;4987095;28;20034;-76
2022/08/03 05:39:33;;;;;;;7.22;1.63;;;;;;;13.27;100.00;100348.53;5024451;28;20454;-75
2022/08/03 05:41:58;;;;;;;9.93;2.15;;;;;;;13.33;100.00;100354.97;5011318;28;20091;-76
2022/08/03 05:44:24;;;;;;;10.18;2.20;;;;;;;13.36;100.00;100354.56;5013578;28;20434;-76
2022/08/03 05:46:50;;;;;;;10.60;2.20;;;;;;;13.33;100.00;100345.00;5026389;28;20037;-75
2022/08/03 05:49:16;;;;;;;12.13;2.15;;;;;;;13.41;100.00;100355.63;5021037;28;20056;-76
2022/08/03 05:51:42;;;;;;;12.43;2.47;;;;;;;13.49;100.00;100362.69;5007525;28;20479;-76
2022/08/03 05:54:08;;;;;;;10.55;2.08;;;;;;;13.53;100.00;100365.84;4991300;28;20037;-75
2022/08/03 05:56:33;;;;;;;10.32;2.15;;;;;;;13.52;100.00;100367.72;5026506;28;20121;-75
2022/08/03 05:58:59;;;;;;;14.35;1.80;;;;;;;13.46;100.00;100373.91;5019285;28;20037;-76
2022/08/03 06:01:25;;;;;;;15.25;2.50;;;;;;;13.35;100.00;100367.25;5006843;28;20068;-76
2022/08/03 06:03:51;;;;;;;10.15;1.83;;;;;;;13.30;100.00;100369.72;5006367;28;20033;-75
2022/08/03 06:06:17;;;;;;;6.40;1.58;;;;;;;13.26;100.00;100373.00;4991895;28;20065;-76
2022/08/03 06:08:43;;;;;;;3.40;1.20;;;;;;;13.04;100.00;100345.31;5008630;28;20030;-77
2022/08/03 06:11:09;;;;;;;6.18;1.63;;;;;;;13.19;100.00;100379.22;5010176;28;20044;-76
2022/08/03 06:13:35;;;;;;;7.43;1.52;;;;;;;13.03;100.00;100357.97;5011969;28;20099;-76
2022/08/03 06:16:01;;;;;;;4.00;1.17;;;;;;;13.08;100.00;100379.81;5018894;28;20042;-76
2022/08/03 06:18:27;;;;;;;10.18;1.73;;;;;;;13.07;100.00;100386.25;4996633;28;20045;-75
2022/08/03 06:20:53;;;;;;;6.50;1.48;;;;;;;13.10;100.00;100388.53;4976852;28;20399;-75
2022/08/03 06:23:19;;;;;;;3.60;1.88;;;;;;;13.06;100.00;100383.72;4986939;28;20041;-76
2022/08/03 06:25:45;;;;;;;3.33;1.15;;;;;;;13.11;100.00;100383.97;5020141;28;20034;-76
2022/08/03 06:28:12;;;;;;;5.95;1.15;;;;;;;13.13;100.00;100385.44;4984718;28;20563;-75
2022/08/03 06:30:39;;;;;;;8.57;1.77;;;;;;;13.11;100.00;100387.50;5008388;28;20196;-76
2022/08/03 06:33:05;;;;;;;7.68;2.42;;;;;;;13.18;100.00;100391.06;5025432;28;20513;-76
2022/08/03 06:35:32;;;;;;;10.18;1.38;;;;;;;13.09;100.00;100367.94;4982526;28;20103;-75
2022/08/03 06:37:58;;;;;;;6.13;1.45;;;;;;;13.14;100.00;100392.47;5021955;28;20034;-78
2022/08/03 06:40:30;;;;;;;2.63;1.35;;;;;;;13.06;100.00;100376.47;5021910;28;20025;-75
2022/08/03 06:43:00;;;;;;;5.38;1.52;;;;;;;13.16;100.00;100395.00;5009215;28;20054;-77
2022/08/03 06:45:27;;;;;;;5.82;1.20;;;;;;;13.17;100.00;100396.66;5016671;28;20067;-77
2022/08/03 06:48:22;;;;;;;8.02;1.90;;;;;;;13.22;100.00;100404.97;5027208;28;20078;-76
2022/08/03 06:50:48;;;;;;;9.88;2.00;;;;;;;13.25;100.00;100409.13;5023723;28;20042;-77
2022/08/03 06:53:13;;;;;;;9.55;2.70;;;;;;;13.23;100.00;100397.69;4990972;28;20029;-77
2022/08/03 06:55:39;;;;;;;5.78;3.45;;;;;;;13.30;100.00;100409.41;5012833;28;20029;-76
2022/08/03 06:58:05;;;;;;;7.40;1.75;;;;;;;13.31;100.00;100413.75;5010241;28;20503;-76
2022/08/03 07:00:31;;;;;;;3.67;1.15;;;;;;;13.31;100.00;100411.91;5013663;28;20044;-77
2022/08/03 07:02:56;;;;;;;11.80;2.30;;;;;;;13.38;100.00;100409.22;5026576;28;20074;-76
2022/08/03 07:05:22;;;;;;;2.90;1.60;;;;;;;13.47;100.00;100412.56;4986910;28;20042;-77
2022/08/03 07:07:48;;;;;;;7.18;1.75;;;;;;;13.62;100.00;100405.94;5018607;28;20071;-76
2022/08/03 07:10:14;;;;;;;6.32;1.90;;;;;;;13.74;100.00;100413.47;4991345;28;20423;-76
2022/08/03 07:12:40;;;;;;;8.15;1.73;;;;;;;13.81;100.00;100412.47;5002399;28;20195;-76
2022/08/03 07:15:06;;;;;;;8.02;1.92;;;;;;;13.91;100.00;100417.44;5020406;28;20033;-77
2022/08/03 07:17:33;;;;;;;6.10;1.67;;;;;;;14.02;100.00;100416.81;5011358;28;20041;-77
2022/08/03 07:20:00;;;;;;;9.10;2.03;;;;;;;14.12;100.00;100421.00;5017352;28;20037;-77
2022/08/03 07:22:26;;;;;;;8.63;1.92;;;;;;;14.27;100.00;100427.03;5014690;28;20474;-77
2022/08/03 07:24:51;;;;;;;6.90;1.23;;;;;;;14.24;100.00;100387.72;5001044;28;20041;-76
2022/08/03 07:27:21;;;;;;;5.57;1.35;;;;;;;14.29;100.00;100373.59;5009205;28;20068;-77
2022/08/03 07:29:47;;;;;;;4.85;1.33;;;;;;;14.67;100.00;100435.16;4988028;28;20395;-78
2022/08/03 07:32:13;;;;;;;0.85;0.70;;;;;;;14.56;100.00;100441.22;5023042;28;20478;-78
2022/08/03 07:34:39;;;;;;;0.30;0.30;;;;;;;14.47;100.00;100449.50;4983547;28;20044;-77
2022/08/03 07:37:04;;;;;;;0.52;0.47;;;;;;;14.43;100.00;100456.38;5017308;28;20044;-77
2022/08/03 07:39:30;;;;;;;0.40;0.40;;;;;;;14.38;100.00;100445.34;5016739;28;20040;-76
2022/08/03 07:41:56;;;;;;;0.75;0.75;;;;;;;14.51;100.00;100453.44;5006499;28;20034;-77
2022/08/03 07:44:21;;;;;;;0.30;0.30;;;;;;;14.81;100.00;100439.50;5012524;28;20067;-77
2022/08/03 07:46:47;;;;;;;0.50;0.50;;;;;;;15.37;100.00;100446.19;5019473;28;20037;-77
2022/08/03 07:49:13;;;;;;;2.50;0.85;;;;;;;15.89;100.00;100447.00;5019819;28;20061;-77
2022/08/03 07:51:39;;;;;;;0.40;0.40;;;;;;;16.20;100.00;100440.72;4998523;28;20105;-77
2022/08/03 07:54:08;;;;;;;0.50;0.50;;;;;;;16.45;100.00;100445.31;5003483;28;20050;-77
2022/08/03 07:56:37;;;;;;;0.50;0.50;;;;;;;17.61;100.00;100445.53;5003436;28;20513;-78
2022/08/03 07:59:03;;;;;;;0.60;0.60;;;;;;;20.46;97.02;100455.66;5017972;28;20037;-77
2022/08/03 08:01:31;;;;;;;0.35;0.35;;;;;;;20.56;92.45;100455.84;4992654;28;20038;-83
2022/08/03 08:03:59;;;;;;;0.30;0.30;;;;;;;18.61;100.00;100463.91;5005897;28;20377;-83
2022/08/03 08:06:25;;;;;;;0.30;0.30;;;;;;;17.56;100.00;100457.91;5007963;28;22195;-83
2022/08/03 08:08:50;;;;;;;0.30;0.30;;;;;;;17.18;100.00;100471.78;5020220;28;20030;-84
2022/08/03 08:11:16;;;;;;;0.52;0.52;;;;;;;17.64;100.00;100456.78;4987558;28;20403;-82
2022/08/03 08:13:42;;;;;;;0.50;0.50;;;;;;;19.00;100.00;100469.72;4989168;28;20044;-83
2022/08/03 08:16:09;;;;;;;0.40;0.40;;;;;;;20.15;94.62;100476.97;5007361;28;20041;-83
2022/08/03 08:18:34;;;;;;;0.47;0.47;;;;;;;20.25;95.17;100483.69;4985538;28;20124;-82
2022/08/03 08:21:02;;;;;;;0.60;0.60;;;;;;;21.04;88.57;100478.97;4999539;28;20124;-81
2022/08/03 08:23:28;;;;;;;0.40;0.40;;;;;;;21.95;84.57;100488.56;5008501;28;20061;-85
2022/08/03 08:25:53;;;;;;;0.50;0.50;;;;;;;22.37;82.92;100483.25;5012728;28;20061;-82
2022/08/03 08:28:20;;;;;;;0.40;0.40;;;;;;;23.18;78.77;100468.47;5013995;28;20394;-82
2022/08/03 08:30:46;;;;;;;0.40;0.40;;;;;;;21.86;84.44;100488.19;5032744;28;20037;-83
2022/08/03 08:33:12;;;;;;;0.32;0.32;;;;;;;21.54;87.67;100496.31;5004120;28;20113;-82
2022/08/03 08:35:38;;;;;;;0.30;0.30;;;;;;;19.97;94.04;100485.38;4995077;28;20099;-81
2022/08/03 08:38:23;;;;;;;0.35;0.35;;;;;;;18.59;100.00;100491.38;4993856;28;20025;-83
2022/08/03 08:40:55;;;;;;;1.08;0.47;;;;;;;17.82;100.00;100496.72;5031307;28;20464;-84
2022/08/03 08:43:21;;;;;;;0.40;0.40;;;;;;;17.75;100.00;100468.75;4989225;28;20033;-79
2022/08/03 08:45:51;;;;;;;1.08;0.70;;;;;;;18.46;100.00;100489.69;5026494;28;20040;-80
2022/08/03 08:48:24;;;;;;;0.40;0.40;;;;;;;19.23;98.26;100507.84;5006004;28;20121;-80
2022/08/03 08:50:56;;;;;;;0.47;0.47;;;;;;;18.97;99.35;100502.91;5007413;28;20034;-81
2022/08/03 08:53:25;;;;;;;0.50;0.50;;;;;;;18.18;100.00;100486.81;5028408;28;20048;-80
2022/08/03 08:55:54;;;;;;;1.40;0.60;;;;;;;17.52;100.00;100488.53;5029019;28;20045;-82
2022/08/03 08:58:22;;;;;;;2.28;0.98;;;;;;;17.60;100.00;100504.53;4998599;28;20408;-80
2022/08/03 09:00:48;;;;;;;1.20;0.75;;;;;;;17.99;100.00;100519.53;5032287;28;20033;-79
2022/08/03 09:03:14;;;;;;;1.75;0.70;;;;;;;18.96;100.00;100507.53;4997334;28;20052;-79
2022/08/03 09:05:42;;;;;;;2.78;0.70;;;;;;;18.18;100.00;100479.47;5016047;28;20463;-79
2022/08/03 09:08:08;;;;;;;0.65;0.60;;;;;;;18.60;100.00;100489.47;5009554;28;20041;-79
2022/08/03 09:10:34;;;;;;;0.52;0.52;;;;;;;19.37;98.60;100523.94;5021172;28;20052;-79
2022/08/03 09:13:00;;;;;;;0.68;0.57;;;;;;;19.39;97.10;100530.81;5020769;28;20047;-79
2022/08/03 09:15:30;;;;;;;2.08;0.70;;;;;;;19.37;99.18;100529.41;5023251;28;20041;-80
2022/08/03 09:18:00;;;;;;;1.55;0.70;;;;;;;19.49;97.23;100517.41;5043291;28;20041;-79
2022/08/03 09:20:29;;;;;;;1.40;0.80;;;;;;;20.12;94.71;100532.06;5015284;28;20108;-79
2022/08/03 09:23:07;;;;;;;6.63;1.20;;;;;;;21.03;84.98;100515.56;5010903;28;20036;-79
2022/08/03 09:25:39;;;;;;;4.35;1.33;;;;;;;21.12;83.47;100502.31;5026960;28;20033;-79
2022/08/03 09:28:08;;;;;;;2.45;0.80;;;;;;;21.02;85.37;100510.34;5015942;28;20032;-79
2022/08/03 09:30:35;;;;;;;1.98;1.00;;;;;;;21.25;85.47;100512.06;5027698;28;20040;-77
2022/08/03 09:33:03;;;;;;;2.03;0.82;;;;;;;22.53;81.16;100519.00;5000957;28;20804;-77
2022/08/03 09:35:28;;;;;;;3.13;1.30;;;;;;;23.94;73.89;100522.00;5022492;28;20025;-78
2022/08/03 09:38:13;;;;;;;2.85;1.00;;;;;;;24.24;72.57;100495.69;5018363;28;20033;-77
2022/08/03 09:40:39;;;;;;;4.65;1.10;;;;;;;25.60;67.03;100523.31;5010939;28;20033;-75
2022/08/03 09:43:08;;;;;;;2.40;1.17;;;;;;;27.09;61.77;100520.34;5025248;28;20037;-76
2022/08/03 09:45:35;;;;;;;4.97;1.42;;;;;;;27.89;60.01;100524.44;5021911;28;20056;-76
2022/08/03 09:48:20;;;;;;;2.22;1.10;;;;;;;28.14;57.02;100522.41;5004037;28;20063;-76
2022/08/03 09:51:04;;;;;;;2.08;1.20;;;;;;;27.38;54.46;100528.63;5013190;28;20057;-76
2022/08/03 09:53:30;;;;;;;2.63;0.98;;;;;;;27.72;51.85;100527.66;5025971;28;20151;-76
2022/08/03 09:55:59;;;;;;;4.00;1.05;;;;;;;25.27;60.53;100532.25;5021809;28;20108;-76
2022/08/03 09:58:27;;;;;;;2.78;0.80;;;;;;;23.98;62.20;100525.88;5023537;28;20044;-78
2022/08/03 10:01:02;;;;;;;2.47;1.00;;;;;;;23.76;68.34;100536.22;5008990;28;20052;-76
2022/08/03 10:03:33;;;;;;;2.70;0.90;;;;;;;23.64;64.80;100542.75;5054444;28;20041;-76
2022/08/03 10:06:21;;;;;;;3.05;1.00;;;;;;;23.30;66.54;100549.72;5023651;28;20038;-75
2022/08/03 10:09:13;;;;;;;3.08;1.15;;;;;;;23.85;64.96;100549.19;5013347;28;20061;-76
2022/08/03 10:11:40;;;;;;;3.22;1.08;;;;;;;23.91;65.31;100547.28;4997940;28;20484;-76
2022/08/03 10:14:08;;;;;;;3.75;1.35;;;;;;;24.03;64.12;100552.53;5010918;28;20117;-78
2022/08/03 10:16:35;;;;;;;3.30;1.00;;;;;;;22.66;69.43;100551.44;5007313;28;20099;-77
2022/08/03 10:19:03;;;;;;;4.57;1.10;;;;;;;21.34;75.34;100553.47;5022682;28;20041;-79
2022/08/03 10:21:39;;;;;;;7.72;1.40;;;;;;;22.19;73.99;100557.56;5008881;28;20039;-76
2022/08/03 10:24:07;;;;;;;3.85;1.20;;;;;;;23.01;66.81;100555.56;5019585;28;20034;-78
2022/08/03 10:26:36;;;;;;;5.07;1.20;;;;;;;23.58;70.13;100552.06;5033354;28;20065;-78
2022/08/03 10:29:06;;;;;;;4.38;1.17;;;;;;;23.21;60.43;100566.69;5006019;28;20053;-79
2022/08/03 10:31:40;;;;;;;5.68;1.30;;;;;;;21.71;68.12;100557.25;5013560;28;20037;-79
2022/08/03 10:34:18;;;;;;;6.18;1.65;;;;;;;20.56;65.93;100558.78;5005947;28;20407;-78
2022/08/03 10:36:44;;;;;;;4.57;1.33;;;;;;;19.59;72.04;100565.88;5004048;28;20039;-79
2022/08/03 10:39:12;;;;;;;6.88;1.33;;;;;;;18.93;78.56;100567.13;4994229;28;20037;-77
2022/08/03 10:41:39;;;;;;;7.70;1.60;;;;;;;18.54;83.11;100569.38;5006636;28;20041;-77
2022/08/03 10:44:27;;;;;;;4.70;1.58;;;;;;;18.71;83.12;100555.91;5000582;28;20084;-76
2022/08/03 10:46:53;;;;;;;10.43;2.00;;;;;;;20.11;78.47;100562.31;5009378;28;20360;-78
2022/08/03 10:49:19;;;;;;;8.90;1.88;;;;;;;22.64;70.74;100580.19;5006869;28;20143;-78
2022/08/03 10:51:46;;;;;;;7.25;1.55;;;;;;;24.88;57.46;100579.59;5029468;28;20116;-77
2022/08/03 10:57:33;;;;;;;5.68;1.30;;;;;;;23.66;57.40;100584.50;4987313;28;20053;-77
2022/08/03 10:57:47;;;;;;;8.20;1.60;;;;;;;23.04;60.70;100576.97;5018412;28;20034;-77
2022/08/03 11:00:18;;;;;;;10.70;1.63;;;;;;;22.37;60.08;100584.59;5003551;28;20282;-77
2022/08/03 11:03:09;;;;;;;5.28;1.35;;;;;;;21.32;63.70;100574.75;4985338;28;21840;-78
2022/08/03 11:05:38;;;;;;;5.97;1.70;;;;;;;20.70;66.17;100582.00;4993912;28;20038;-78
2022/08/03 11:08:26;;;;;;;6.53;1.48;;;;;;;20.24;69.33;100591.22;4985278;28;20041;-78
2022/08/03 11:10:57;;;;;;;7.65;1.33;;;;;;;20.05;69.96;100590.59;5003906;28;20092;-78
2022/08/03 11:13:27;;;;;;;5.00;1.38;;;;;;;20.18;70.43;100601.22;4994287;28;20029;-77
2022/08/03 11:15:55;;;;;;;6.75;1.67;;;;;;;20.41;69.37;100598.41;4978385;28;20155;-77
2022/08/03 11:18:21;;;;;;;10.45;1.38;;;;;;;20.95;68.11;100599.88;4993836;28;20479;-77
2022/08/03 11:20:48;;;;;;;8.00;1.85;;;;;;;21.70;64.38;100607.59;4978933;28;20042;-78
2022/08/03 11:23:15;;;;;;;3.35;1.00;;;;;;;22.30;59.33;100589.44;4993719;28;20037;-78
2022/08/03 11:26:11;;;;;;;4.85;1.10;;;;;;;22.67;57.17;100599.66;4994461;28;20029;-77